createdAt,value
2022-12-23T00:01:27.496Z,17.00
2022-12-23T00:03:59.864Z,22.00
2022-12-23T00:06:28.166Z,16.00
2022-12-23T00:08:58.896Z,18.00
2022-12-23T00:11:28.855Z,22.00
2022-12-23T00:14:21.088Z,22.00
2022-12-23T00:16:51.147Z,23.00
2022-12-23T00:19:19.604Z,18.50
2022-12-23T00:21:48.673Z,22.00
2022-12-23T00:24:16.805Z,24.00
2022-12-23T00:26:44.681Z,18.00
2022-12-23T00:29:12.635Z,19.00
2022-12-23T00:31:40.881Z,21.00
2022-12-23T00:36:39.182Z,23.00
2022-12-23T00:44:42.441Z,28.00
2022-12-23T00:47:30.421Z,22.00
2022-12-23T00:49:58.426Z,20.00
2022-12-23T00:54:55.251Z,27.00
2022-12-23T00:57:23.261Z,25.00
2022-12-23T00:59:51.307Z,22.50
2022-12-23T01:05:36.606Z,22.00
2022-12-23T01:08:10.872Z,16.50
2022-12-23T01:10:40.632Z,18.50
2022-12-23T01:13:08.613Z,17.00
2022-12-23T01:18:04.619Z,22.00
2022-12-23T01:20:32.517Z,21.00
2022-12-23T01:23:01.763Z,19.00
2022-12-23T01:25:30.642Z,23.00
2022-12-23T01:27:58.666Z,20.50
2022-12-23T01:32:54.457Z,23.00
2022-12-23T01:35:22.612Z,23.00
2022-12-23T01:40:18.737Z,14.50
2022-12-23T01:42:47.409Z,20.00
2022-12-23T01:50:36.659Z,14.00
2022-12-23T01:53:13.879Z,19.00
2022-12-23T01:58:23.619Z,19.00
2022-12-23T02:03:45.304Z,17.50
2022-12-23T02:09:25.917Z,17.00
2022-12-23T02:12:15.838Z,20.50
2022-12-23T02:20:38.096Z,20.00
2022-12-23T02:23:36.585Z,16.00
2022-12-23T02:31:59.568Z,17.00
2022-12-23T02:37:48.387Z,16.00
2022-12-23T02:43:03.834Z,16.00
2022-12-23T02:45:38.727Z,13.00
2022-12-23T02:48:22.653Z,14.00
2022-12-23T02:50:53.442Z,13.50
2022-12-23T02:56:08.935Z,16.00
2022-12-23T03:01:45.351Z,14.00
2022-12-23T03:04:14.502Z,11.00
2022-12-23T03:06:46.179Z,11.00
2022-12-23T03:09:32.500Z,18.00
2022-12-23T03:12:48.276Z,17.50
2022-12-23T03:15:43.029Z,17.00
2022-12-23T03:21:08.934Z,23.00
2022-12-23T03:26:17.344Z,19.00
2022-12-23T03:29:03.127Z,21.00
2022-12-23T03:34:11.425Z,21.00
2022-12-23T03:36:48.303Z,19.00
2022-12-23T03:42:02.279Z,16.00
2022-12-23T03:44:36.812Z,16.00
2022-12-23T03:52:30.892Z,22.00
2022-12-23T03:55:04.437Z,19.00
2022-12-23T03:57:44.727Z,21.00
2022-12-23T04:00:14.037Z,26.00
2022-12-23T04:08:17.745Z,23.00
2022-12-23T04:10:46.500Z,17.00
2022-12-23T04:15:42.911Z,23.50
2022-12-23T04:20:40.175Z,20.00
2022-12-23T04:23:08.097Z,30.00
2022-12-23T04:25:36.854Z,29.00
2022-12-23T04:28:05.192Z,24.00
2022-12-23T04:30:34.713Z,27.00
2022-12-23T04:33:03.713Z,25.00
2022-12-23T04:38:00.273Z,21.00
2022-12-23T04:40:28.337Z,21.00
2022-12-23T04:42:56.416Z,18.00
2022-12-23T04:45:24.570Z,18.00
2022-12-23T04:47:54.458Z,11.00
2022-12-23T04:50:22.693Z,11.50
2022-12-23T04:52:50.944Z,13.00
2022-12-23T05:00:15.262Z,14.00
2022-12-23T05:02:43.438Z,21.00
2022-12-23T05:05:11.802Z,15.50
2022-12-23T05:10:08.775Z,11.00
2022-12-23T05:12:36.808Z,11.00
2022-12-23T05:15:05.667Z,13.00
2022-12-23T05:17:33.679Z,11.00
2022-12-23T05:20:01.719Z,14.00
2022-12-23T05:22:29.973Z,20.00
2022-12-23T05:24:57.998Z,22.00
2022-12-23T05:32:21.866Z,14.00
2022-12-23T05:34:49.899Z,17.00
2022-12-23T05:37:17.831Z,13.00
2022-12-23T05:39:45.730Z,13.00
2022-12-23T05:49:41.702Z,13.00
2022-12-23T05:52:09.777Z,12.00
2022-12-23T05:54:37.658Z,13.00
2022-12-23T05:57:05.816Z,12.00
2022-12-23T05:59:33.882Z,11.00
2022-12-23T06:02:02.151Z,14.00
2022-12-23T06:04:30.437Z,14.00
2022-12-23T06:06:58.561Z,11.50
2022-12-23T06:09:26.511Z,11.00
2022-12-23T06:21:53.188Z,9.00
2022-12-23T06:24:21.408Z,9.00
2022-12-23T06:26:54.894Z,11.00
2022-12-23T06:29:25.459Z,9.50
2022-12-23T06:31:53.787Z,14.50
2022-12-23T06:36:50.077Z,14.00
2022-12-23T06:39:18.229Z,11.00
2022-12-23T06:41:46.591Z,14.00
2022-12-23T06:44:14.699Z,14.00
2022-12-23T06:46:42.792Z,17.00
2022-12-23T06:49:13.656Z,13.50
2022-12-23T06:54:12.186Z,10.00
2022-12-23T06:56:40.535Z,10.00
2022-12-23T06:59:08.589Z,9.00
2022-12-23T07:01:36.852Z,11.00
2022-12-23T07:04:05.273Z,13.00
2022-12-23T07:09:01.406Z,8.00
2022-12-23T07:11:30.153Z,15.00
2022-12-23T07:13:59.606Z,12.00
2022-12-23T07:16:27.712Z,11.00
2022-12-23T07:21:29.029Z,13.00
2022-12-23T07:23:58.076Z,10.00
2022-12-23T07:26:26.212Z,11.00
2022-12-23T07:31:24.227Z,18.00
2022-12-23T07:33:52.335Z,17.00
2022-12-23T07:36:20.323Z,15.00
2022-12-23T07:41:19.963Z,20.00
2022-12-23T07:43:49.461Z,19.00
2022-12-23T07:46:17.641Z,19.00
2022-12-23T07:51:14.928Z,15.00
2022-12-23T07:53:50.534Z,12.00
2022-12-23T07:56:19.628Z,19.00
2022-12-23T07:58:52.843Z,13.00
2022-12-23T08:01:22.126Z,16.00
2022-12-23T08:03:50.334Z,14.00
2022-12-23T08:06:18.412Z,19.00
2022-12-23T08:11:15.973Z,11.00
2022-12-23T08:13:45.466Z,15.00
2022-12-23T08:18:43.279Z,12.00
2022-12-23T08:21:15.683Z,11.00
2022-12-23T08:28:43.735Z,12.00
2022-12-23T08:38:53.705Z,14.00
2022-12-23T08:41:28.595Z,14.00
2022-12-23T08:43:57.397Z,16.50
2022-12-23T08:46:26.314Z,10.00
2022-12-23T08:51:25.512Z,14.00
2022-12-23T08:54:01.080Z,12.00
2022-12-23T08:56:33.881Z,12.00
2022-12-23T08:59:02.437Z,11.00
2022-12-23T09:01:32.805Z,11.00
2022-12-23T09:04:05.550Z,14.50
2022-12-23T09:09:07.328Z,18.00
2022-12-23T09:16:32.291Z,17.00
2022-12-23T09:21:28.491Z,17.00
2022-12-23T09:23:59.235Z,15.00
2022-12-23T09:28:59.692Z,20.00
2022-12-23T09:31:35.879Z,17.00
2022-12-23T09:34:05.175Z,17.00
2022-12-23T09:36:33.305Z,16.50
2022-12-23T09:39:01.236Z,16.00
2022-12-23T09:41:38.565Z,16.00
2022-12-23T09:44:25.517Z,13.00
2022-12-23T09:47:05.975Z,14.00
2022-12-23T09:49:34.808Z,14.00
2022-12-23T09:52:06.790Z,22.00
2022-12-23T09:54:47.616Z,15.00
2022-12-23T09:57:32.995Z,20.00
2022-12-23T10:13:26.169Z,11.00
2022-12-23T10:15:58.462Z,11.00
2022-12-23T10:18:35.356Z,11.00
2022-12-23T10:21:07.883Z,12.00
2022-12-23T10:23:44.446Z,10.00
2022-12-23T10:26:55.495Z,11.50
2022-12-23T10:32:02.725Z,12.00
2022-12-23T10:34:40.279Z,8.00
2022-12-23T10:37:21.759Z,12.00
2022-12-23T10:42:44.224Z,14.50
2022-12-23T10:51:15.102Z,15.50
2022-12-23T10:53:57.179Z,17.00
2022-12-23T10:56:25.697Z,19.00
2022-12-23T10:58:59.460Z,17.50
2022-12-23T11:01:31.052Z,20.00
2022-12-23T11:09:43.838Z,14.00
2022-12-23T11:12:12.841Z,20.00
2022-12-23T11:14:50.044Z,21.00
2022-12-23T11:17:24.883Z,15.00
2022-12-23T11:20:11.374Z,24.00
2022-12-23T11:22:53.383Z,23.50
2022-12-23T11:25:38.514Z,24.00
2022-12-23T11:28:15.661Z,20.00
2022-12-23T11:31:09.777Z,21.00
2022-12-23T11:33:40.107Z,24.00
2022-12-23T11:36:14.681Z,19.00
2022-12-23T11:38:51.874Z,21.00
2022-12-23T11:46:32.907Z,22.50
2022-12-23T11:49:18.574Z,21.00
2022-12-23T11:52:14.016Z,21.00
2022-12-23T11:54:54.363Z,22.50
2022-12-23T11:57:28.715Z,22.00
2022-12-23T12:02:58.883Z,22.00
2022-12-23T12:05:35.530Z,23.00
2022-12-23T12:08:15.913Z,19.00
2022-12-23T12:16:31.554Z,22.00
2022-12-23T12:19:15.204Z,19.00
2022-12-23T12:24:22.939Z,20.00
2022-12-23T12:27:02.778Z,23.00
2022-12-23T12:29:56.170Z,20.50
2022-12-23T12:32:50.797Z,25.00
2022-12-23T12:35:27.343Z,25.00
2022-12-23T12:38:12.404Z,24.00
2022-12-23T12:40:47.770Z,21.00
2022-12-23T12:49:04.798Z,15.00
2022-12-23T12:51:40.891Z,17.00
2022-12-23T12:54:32.132Z,20.00
2022-12-23T12:57:02.552Z,23.00
2022-12-23T13:02:25.380Z,23.00
2022-12-23T13:05:16.149Z,25.00
2022-12-23T13:10:20.685Z,22.00
2022-12-23T13:18:34.628Z,22.00
2022-12-23T13:21:23.363Z,18.00
2022-12-23T13:24:15.532Z,21.50
2022-12-23T13:27:07.642Z,17.00
2022-12-23T13:29:43.531Z,24.00
2022-12-23T13:38:15.202Z,20.00
2022-12-23T13:43:55.830Z,24.00
2022-12-23T13:47:14.519Z,21.00
2022-12-23T13:52:40.313Z,28.00
2022-12-23T13:55:21.702Z,25.00
2022-12-23T13:57:59.738Z,22.50
2022-12-23T14:00:30.993Z,23.00
2022-12-23T14:03:02.189Z,18.00
2022-12-23T14:05:39.678Z,25.00
2022-12-23T14:08:20.041Z,22.00
2022-12-23T14:11:13.017Z,26.00
2022-12-23T14:16:34.882Z,28.00
2022-12-23T14:19:37.124Z,22.00
2022-12-23T14:22:05.374Z,21.00
2022-12-23T14:27:21.871Z,26.00
2022-12-23T14:30:10.118Z,26.00
2022-12-23T14:35:35.410Z,26.00
2022-12-23T14:38:08.221Z,29.00
2022-12-23T14:43:26.850Z,27.00
2022-12-23T14:46:00.665Z,28.00
2022-12-23T14:48:47.968Z,23.00
2022-12-23T14:53:52.251Z,22.00
2022-12-23T14:56:31.811Z,30.00
2022-12-23T15:01:39.552Z,29.00
2022-12-23T15:04:12.336Z,27.00
2022-12-23T15:06:47.275Z,27.00
2022-12-23T15:09:21.085Z,27.00
2022-12-23T15:11:49.837Z,30.00
2022-12-23T15:14:43.303Z,21.00
2022-12-23T15:20:24.338Z,28.00
2022-12-23T15:22:52.807Z,26.00
2022-12-23T15:25:24.872Z,28.00
2022-12-23T15:28:01.294Z,30.00
2022-12-23T15:35:34.762Z,29.00
2022-12-23T15:40:36.885Z,30.00
2022-12-23T15:43:17.916Z,30.00
2022-12-23T15:45:46.277Z,29.00
2022-12-23T15:48:27.538Z,25.00
2022-12-23T16:01:00.683Z,25.00
2022-12-23T16:03:40.656Z,27.00
2022-12-23T16:06:39.231Z,26.00
2022-12-23T16:09:26.043Z,26.00
2022-12-23T16:14:31.253Z,28.00
2022-12-23T16:19:50.433Z,27.00
2022-12-23T16:22:35.754Z,26.00
2022-12-23T16:30:20.777Z,22.00
2022-12-23T16:38:24.141Z,25.50
2022-12-23T16:43:38.070Z,31.00
2022-12-23T16:46:09.037Z,25.00
2022-12-23T16:53:50.221Z,30.00
2022-12-23T16:56:20.599Z,27.00
2022-12-23T16:58:48.979Z,29.00
2022-12-23T17:01:26.172Z,28.00
2022-12-23T17:06:27.098Z,29.00
2022-12-23T17:08:58.602Z,30.00
2022-12-23T17:16:46.182Z,32.00
2022-12-23T17:19:14.367Z,28.50
2022-12-23T17:21:44.707Z,30.00
2022-12-23T17:34:17.365Z,27.00
2022-12-23T17:36:49.962Z,27.00
2022-12-23T17:39:22.318Z,30.00
2022-12-23T17:41:50.614Z,28.00
2022-12-23T17:44:19.115Z,23.00
2022-12-23T17:49:15.591Z,27.00
2022-12-23T17:51:43.901Z,24.50
2022-12-23T17:54:25.316Z,26.00
2022-12-23T18:04:18.886Z,25.00
2022-12-23T18:06:47.008Z,25.00
2022-12-23T18:11:45.634Z,28.00
2022-12-23T18:14:18.538Z,19.00
2022-12-23T18:16:46.843Z,19.00
2022-12-23T18:19:20.599Z,25.50
2022-12-23T18:21:49.229Z,25.00
2022-12-23T18:24:18.412Z,25.00
2022-12-23T18:29:15.430Z,23.50
2022-12-23T18:31:51.528Z,25.00
2022-12-23T18:34:20.525Z,27.00
2022-12-23T18:39:18.024Z,23.00
2022-12-23T18:41:46.165Z,24.50
2022-12-23T18:44:21.741Z,21.00
2022-12-23T18:51:47.365Z,28.00
2022-12-23T18:54:17.191Z,25.00
2022-12-23T19:04:16.313Z,25.00
2022-12-23T19:06:45.154Z,25.50
2022-12-23T19:09:22.326Z,25.50
2022-12-23T19:11:52.429Z,21.00
2022-12-23T19:14:20.679Z,22.00
2022-12-23T19:19:22.057Z,25.00
2022-12-23T19:24:18.275Z,25.00
2022-12-23T19:26:46.276Z,25.00
2022-12-23T19:34:15.067Z,24.00
2022-12-23T19:36:44.190Z,25.00
2022-12-23T19:39:16.587Z,24.00
2022-12-23T19:41:45.410Z,25.00
2022-12-23T19:44:14.176Z,25.00
2022-12-23T19:46:42.467Z,22.00
2022-12-23T19:49:17.429Z,21.50
2022-12-23T19:51:49.036Z,23.00
2022-12-23T19:54:18.624Z,25.00
2022-12-23T19:56:49.658Z,19.00
2022-12-23T20:06:42.685Z,22.00
2022-12-23T20:09:13.157Z,21.00
2022-12-23T20:11:44.286Z,23.00
2022-12-23T20:14:14.248Z,18.00
2022-12-23T20:16:42.462Z,22.00
2022-12-23T20:19:10.903Z,21.00
2022-12-23T20:24:07.311Z,19.50
2022-12-23T20:26:35.437Z,20.00
2022-12-23T20:31:33.907Z,20.00
2022-12-23T20:36:33.708Z,15.00
2022-12-23T20:39:03.592Z,16.00
2022-12-23T20:41:32.411Z,15.00
2022-12-23T20:46:48.976Z,16.00
2022-12-23T20:49:17.157Z,19.00
2022-12-23T20:54:12.895Z,16.00
2022-12-23T20:59:09.241Z,17.00
2022-12-23T21:01:39.240Z,19.00
2022-12-23T21:04:13.239Z,13.00
2022-12-23T21:06:41.854Z,18.00
2022-12-23T21:09:12.382Z,19.00
2022-12-23T21:11:43.444Z,15.00
2022-12-23T21:14:12.184Z,15.50
2022-12-23T21:19:13.199Z,14.00
2022-12-23T21:21:41.060Z,16.00
2022-12-23T21:24:10.246Z,19.50
2022-12-23T21:26:38.935Z,18.00
2022-12-23T21:29:09.480Z,12.00
2022-12-23T21:31:39.747Z,13.00
2022-12-23T21:36:38.862Z,6.50
2022-12-23T21:39:08.794Z,14.00
2022-12-23T21:41:39.503Z,11.50
2022-12-23T21:44:08.390Z,13.00
2022-12-23T22:01:38.830Z,11.00
2022-12-23T22:06:39.426Z,11.00
2022-12-23T22:11:37.319Z,12.00
2022-12-23T22:14:07.894Z,13.00
2022-12-23T22:16:36.752Z,11.50
2022-12-23T22:19:06.499Z,11.00
2022-12-23T22:21:36.096Z,10.00
2022-12-23T22:24:07.020Z,10.00
2022-12-23T22:29:06.622Z,9.00
2022-12-23T22:31:40.072Z,12.00
2022-12-23T22:34:12.017Z,15.00
2022-12-23T22:36:40.082Z,12.50
2022-12-23T22:39:08.311Z,12.00
2022-12-23T22:41:36.554Z,13.00
2022-12-23T22:44:04.885Z,9.00
2022-12-23T22:46:33.367Z,11.50
2022-12-23T22:51:31.181Z,9.00
2022-12-23T22:54:01.876Z,7.50
2022-12-23T22:56:30.068Z,14.00
2022-12-23T22:58:58.625Z,12.50
2022-12-23T23:06:31.346Z,13.00
2022-12-23T23:08:59.902Z,11.00
2022-12-23T23:11:28.466Z,12.00
2022-12-23T23:13:57.849Z,14.00
2022-12-23T23:18:54.719Z,11.00
2022-12-23T23:21:23.213Z,12.00
2022-12-23T23:23:51.283Z,11.00
2022-12-23T23:26:20.438Z,13.50
2022-12-23T23:28:49.008Z,11.50
2022-12-23T23:31:41.471Z,7.50
2022-12-23T23:34:05.550Z,9.00
2022-12-23T23:36:33.693Z,7.00
2022-12-23T23:39:01.752Z,6.00
2022-12-23T23:41:29.963Z,8.50
2022-12-23T23:46:26.164Z,8.00
2022-12-23T23:48:54.264Z,11.00
2022-12-23T23:51:22.282Z,8.00
2022-12-23T23:53:50.446Z,8.50
2022-12-23T23:56:24.844Z,8.00
